createdAt,value
2018-09-13T00:00:25.156Z,50.53
2018-09-13T00:02:52.160Z,50.88
2018-09-13T00:05:19.558Z,51.13
2018-09-13T00:07:47.024Z,51.46
2018-09-13T00:10:14.433Z,51.56
2018-09-13T00:12:41.886Z,52.02
2018-09-13T00:15:09.357Z,52.69
2018-09-13T00:17:36.870Z,53.56
2018-09-13T00:20:04.406Z,54.13
2018-09-13T00:22:31.894Z,54.15
2018-09-13T00:24:59.407Z,54.25
2018-09-13T00:27:26.865Z,54.11
2018-09-13T00:29:54.317Z,54.02
2018-09-13T00:32:21.758Z,53.98
2018-09-13T00:34:49.200Z,54.41
2018-09-13T00:37:16.644Z,54.42
2018-09-13T00:39:44.392Z,54.52
2018-09-13T00:42:11.996Z,54.38
2018-09-13T00:44:39.480Z,54.39
2018-09-13T00:47:06.910Z,54.48
2018-09-13T00:49:34.388Z,54.38
2018-09-13T00:52:01.883Z,54.30
2018-09-13T00:54:29.364Z,54.25
2018-09-13T00:56:56.860Z,54.49
2018-09-13T00:59:24.272Z,54.55
2018-09-13T01:01:51.700Z,54.57
2018-09-13T01:04:19.145Z,54.36
2018-09-13T01:06:46.634Z,54.08
2018-09-13T01:09:14.105Z,54.01
2018-09-13T01:11:41.557Z,54.05
2018-09-13T01:14:09.088Z,54.18
2018-09-13T01:16:37.104Z,54.29
2018-09-13T01:19:04.584Z,54.53
2018-09-13T01:21:32.047Z,54.78
2018-09-13T01:23:59.532Z,54.72
2018-09-13T01:26:26.932Z,55.05
2018-09-13T01:28:54.357Z,55.30
2018-09-13T01:31:21.804Z,55.71
2018-09-13T01:33:49.231Z,55.81
2018-09-13T01:36:16.726Z,55.68
2018-09-13T01:38:44.209Z,55.62
2018-09-13T01:41:11.652Z,55.73
2018-09-13T01:43:39.115Z,55.82
2018-09-13T01:46:06.557Z,55.69
2018-09-13T01:48:34.088Z,55.15
2018-09-13T01:51:01.571Z,55.21
2018-09-13T01:53:28.975Z,56.07
2018-09-13T01:55:56.724Z,56.66
2018-09-13T01:58:24.183Z,57.17
2018-09-13T02:00:51.744Z,57.35
2018-09-13T02:03:19.187Z,57.30
2018-09-13T02:05:46.656Z,57.23
2018-09-13T02:08:14.064Z,57.51
2018-09-13T02:10:41.528Z,57.64
2018-09-13T02:13:09.020Z,57.25
2018-09-13T02:15:36.447Z,57.00
2018-09-13T02:18:04.179Z,57.31
2018-09-13T02:20:31.627Z,58.35
2018-09-13T02:22:59.184Z,58.96
2018-09-13T02:25:26.237Z,59.33
2018-09-13T02:27:53.234Z,59.40
2018-09-13T02:30:20.192Z,58.98
2018-09-13T02:32:47.237Z,58.77
2018-09-13T02:35:14.227Z,58.96
2018-09-13T02:37:41.273Z,58.83
2018-09-13T02:40:08.651Z,59.19
2018-09-13T02:42:36.159Z,59.46
2018-09-13T02:45:03.799Z,59.44
2018-09-13T02:47:31.276Z,59.48
2018-09-13T02:49:58.730Z,59.70
2018-09-13T02:52:26.197Z,59.71
2018-09-13T02:54:53.702Z,59.74
2018-09-13T02:57:21.255Z,59.92
2018-09-13T02:59:48.766Z,59.97
2018-09-13T03:02:16.211Z,60.26
2018-09-13T03:04:43.614Z,60.61
2018-09-13T03:07:11.064Z,60.55
2018-09-13T03:09:38.611Z,60.33
2018-09-13T03:12:06.010Z,60.37
2018-09-13T03:14:33.472Z,60.62
2018-09-13T03:17:00.936Z,60.51
2018-09-13T03:19:28.416Z,60.60
2018-09-13T03:21:55.812Z,60.86
2018-09-13T03:24:23.292Z,60.97
2018-09-13T03:26:50.736Z,61.07
2018-09-13T03:29:18.181Z,61.21
2018-09-13T03:31:45.686Z,61.39
2018-09-13T03:34:13.136Z,61.47
2018-09-13T03:36:40.816Z,61.62
2018-09-13T03:39:08.303Z,62.06
2018-09-13T03:41:35.770Z,61.63
2018-09-13T03:44:03.239Z,61.83
2018-09-13T03:46:30.661Z,62.16
2018-09-13T03:48:58.093Z,62.56
2018-09-13T03:51:25.581Z,62.49
2018-09-13T03:53:53.041Z,62.53
2018-09-13T03:56:20.573Z,62.63
2018-09-13T03:58:48.236Z,63.21
2018-09-13T04:01:15.867Z,63.53
2018-09-13T04:03:43.297Z,63.29
2018-09-13T04:06:10.774Z,63.00
2018-09-13T04:08:38.228Z,62.77
2018-09-13T04:11:05.747Z,62.64
2018-09-13T04:13:33.193Z,62.45
2018-09-13T04:16:00.666Z,62.37
2018-09-13T04:18:28.160Z,62.17
2018-09-13T04:20:55.602Z,62.15
2018-09-13T04:23:23.096Z,62.31
2018-09-13T04:25:50.577Z,62.45
2018-09-13T04:28:18.059Z,62.58
2018-09-13T04:30:45.499Z,62.46
2018-09-13T04:33:12.945Z,62.52
2018-09-13T04:35:40.484Z,62.97
2018-09-13T04:38:07.900Z,62.96
2018-09-13T04:40:35.344Z,62.92
2018-09-13T04:43:02.833Z,63.05
2018-09-13T04:45:30.342Z,63.11
2018-09-13T04:47:57.811Z,63.28
2018-09-13T04:50:25.229Z,63.16
2018-09-13T04:52:52.738Z,63.11
2018-09-13T04:55:20.162Z,63.06
2018-09-13T04:57:47.609Z,63.34
2018-09-13T05:00:15.066Z,63.61
2018-09-13T05:02:42.439Z,63.63
2018-09-13T05:05:09.906Z,63.43
2018-09-13T05:07:37.355Z,63.27
2018-09-13T05:10:04.841Z,63.20
2018-09-13T05:12:32.314Z,63.57
2018-09-13T05:14:59.745Z,63.81
2018-09-13T05:17:27.222Z,63.60
2018-09-13T05:19:54.663Z,63.59
2018-09-13T05:22:22.152Z,63.60
2018-09-13T05:24:49.666Z,63.64
2018-09-13T05:27:17.096Z,63.64
2018-09-13T05:29:44.540Z,63.43
2018-09-13T05:32:12.036Z,63.45
2018-09-13T05:34:39.460Z,63.89
2018-09-13T05:37:06.891Z,64.10
2018-09-13T05:39:34.352Z,63.85
2018-09-13T05:42:01.811Z,63.54
2018-09-13T05:44:29.284Z,63.12
2018-09-13T05:46:56.703Z,62.41
2018-09-13T05:49:24.144Z,61.83
2018-09-13T05:51:52.586Z,60.65
2018-09-13T05:54:20.011Z,60.24
2018-09-13T05:56:47.492Z,59.65
2018-09-13T05:59:14.977Z,58.32
2018-09-13T06:01:42.486Z,57.65
2018-09-13T06:04:10.400Z,56.60
2018-09-13T06:06:38.810Z,55.59
2018-09-13T06:09:06.288Z,54.69
2018-09-13T06:11:33.834Z,53.92
2018-09-13T06:14:01.275Z,53.50
2018-09-13T06:16:28.776Z,53.22
2018-09-13T06:18:56.463Z,53.75
2018-09-13T06:21:24.042Z,54.94
2018-09-13T06:23:51.554Z,55.86
2018-09-13T06:26:19.004Z,56.70
2018-09-13T06:28:46.565Z,57.23
2018-09-13T06:31:14.019Z,57.68
2018-09-13T06:33:41.621Z,57.91
2018-09-13T06:36:09.068Z,58.16
2018-09-13T06:38:36.657Z,58.53
2018-09-13T06:41:04.245Z,59.02
2018-09-13T06:43:31.697Z,58.64
2018-09-13T06:45:59.207Z,57.94
2018-09-13T06:48:26.714Z,57.25
2018-09-13T06:50:54.151Z,56.96
2018-09-13T06:53:21.642Z,56.78
2018-09-13T06:55:49.120Z,56.77
2018-09-13T06:58:16.575Z,57.15
2018-09-13T07:00:44.053Z,57.24
2018-09-13T07:03:12.831Z,57.55
2018-09-13T07:05:40.309Z,57.21
2018-09-13T07:08:07.975Z,57.32
2018-09-13T07:10:35.417Z,56.88
2018-09-13T07:13:02.950Z,56.52
2018-09-13T07:15:30.399Z,55.66
2018-09-13T07:17:57.837Z,53.28
2018-09-13T07:20:25.377Z,50.26
2018-09-13T07:22:53.740Z,48.12
2018-09-13T07:25:21.259Z,46.42
2018-09-13T07:27:48.744Z,45.63
2018-09-13T07:30:16.292Z,44.73
2018-09-13T07:32:43.842Z,44.47
2018-09-13T07:35:12.259Z,44.55
2018-09-13T07:37:40.818Z,44.11
2018-09-13T07:40:08.389Z,43.59
2018-09-13T07:42:36.733Z,42.31
2018-09-13T07:45:03.883Z,41.89
2018-09-13T07:47:30.925Z,41.29
2018-09-13T07:49:58.022Z,39.77
2018-09-13T07:52:25.462Z,38.36
2018-09-13T07:54:52.989Z,37.13
2018-09-13T07:57:20.469Z,36.40
2018-09-13T07:59:48.217Z,35.46
2018-09-13T08:02:15.761Z,34.89
2018-09-13T08:04:43.255Z,34.99
2018-09-13T08:07:10.246Z,34.34
2018-09-13T08:09:37.716Z,33.76
2018-09-13T08:12:06.083Z,33.31
2018-09-13T08:14:32.957Z,32.94
2018-09-13T08:16:59.945Z,32.61
2018-09-13T08:19:27.434Z,32.02
2018-09-13T08:21:55.496Z,31.64
2018-09-13T08:24:22.472Z,31.82
2018-09-13T08:26:49.535Z,31.59
2018-09-13T08:29:17.075Z,31.78
2018-09-13T08:31:44.060Z,31.39
2018-09-13T08:34:11.524Z,31.25
2018-09-13T08:36:39.043Z,30.88
2018-09-13T08:39:07.785Z,30.75
2018-09-13T08:41:35.436Z,32.13
2018-09-13T08:44:02.519Z,32.66
2018-09-13T08:46:29.462Z,33.00
2018-09-13T08:48:56.422Z,32.28
2018-09-13T08:51:23.487Z,31.51
2018-09-13T08:53:50.890Z,30.89
2018-09-13T08:56:18.353Z,31.09
2018-09-13T08:58:45.302Z,31.28
2018-09-13T09:01:12.328Z,31.31
2018-09-13T09:03:39.794Z,31.29
2018-09-13T09:06:07.376Z,32.72
2018-09-13T09:08:34.856Z,34.45
2018-09-13T09:11:02.417Z,35.15
2018-09-13T09:13:29.870Z,34.75
2018-09-13T09:15:58.636Z,34.57
2018-09-13T09:18:26.200Z,34.08
2018-09-13T09:20:53.639Z,34.45
2018-09-13T09:23:21.081Z,34.85
2018-09-13T09:25:48.576Z,35.41
2018-09-13T09:28:15.997Z,35.23
2018-09-13T09:30:43.612Z,35.24
2018-09-13T09:33:11.103Z,34.79
2018-09-13T09:35:39.432Z,34.16
2018-09-13T09:38:06.856Z,34.27
2018-09-13T09:40:33.901Z,34.09
2018-09-13T09:43:01.029Z,34.04
2018-09-13T09:45:28.511Z,34.72
2018-09-13T09:47:55.983Z,34.58
2018-09-13T09:50:24.392Z,33.80
2018-09-13T09:52:51.622Z,33.60
2018-09-13T09:55:19.084Z,33.65
2018-09-13T09:57:46.589Z,34.30
2018-09-13T10:00:14.196Z,34.32
2018-09-13T10:02:41.626Z,38.06
2018-09-13T10:05:09.055Z,38.20
2018-09-13T10:07:36.744Z,36.79
2018-09-13T10:10:04.306Z,38.10
2018-09-13T10:12:31.770Z,38.92
2018-09-13T10:14:59.278Z,37.53
2018-09-13T10:20:35.671Z,35.92
2018-09-13T10:26:14.932Z,35.51
2018-09-13T10:28:48.189Z,36.09
2018-09-13T10:34:15.675Z,34.03
2018-09-13T10:36:48.803Z,34.22
2018-09-13T10:42:30.264Z,32.82
2018-09-13T10:47:56.490Z,31.43
2018-09-13T10:50:17.430Z,30.96
2018-09-13T10:52:44.893Z,31.20
2018-09-13T10:55:12.485Z,30.55
2018-09-13T10:57:40.661Z,29.98
2018-09-13T11:00:08.192Z,29.79
2018-09-13T11:02:35.717Z,31.07
2018-09-13T11:05:03.186Z,32.00
2018-09-13T11:07:30.624Z,31.98
2018-09-13T11:09:58.115Z,32.16
2018-09-13T11:12:25.611Z,32.46
2018-09-13T11:14:53.104Z,33.75
2018-09-13T11:17:21.757Z,33.66
2018-09-13T11:19:49.327Z,33.75
2018-09-13T11:22:16.802Z,33.32
2018-09-13T11:24:44.268Z,33.59
2018-09-13T11:27:11.718Z,33.00
2018-09-13T11:29:39.173Z,32.65
2018-09-13T11:32:06.669Z,32.64
2018-09-13T11:34:34.995Z,32.56
2018-09-13T11:37:02.496Z,32.75
2018-09-13T11:39:29.951Z,33.47
2018-09-13T11:41:57.901Z,33.78
2018-09-13T11:44:25.384Z,33.34
2018-09-13T11:46:54.053Z,33.31
2018-09-13T11:49:21.528Z,32.77
2018-09-13T11:51:49.044Z,32.19
2018-09-13T11:54:16.456Z,32.65
2018-09-13T11:56:43.968Z,32.48
2018-09-13T11:59:11.517Z,32.25
2018-09-13T12:01:39.060Z,32.00
2018-09-13T12:04:06.529Z,31.78
2018-09-13T12:06:33.938Z,32.24
2018-09-13T12:09:01.417Z,31.67
2018-09-13T12:11:28.887Z,30.96
2018-09-13T12:13:56.351Z,30.55
2018-09-13T12:16:23.804Z,30.59
2018-09-13T12:18:51.534Z,30.00
2018-09-13T12:21:18.875Z,29.67
2018-09-13T12:23:46.324Z,29.61
2018-09-13T12:26:13.774Z,29.58
2018-09-13T12:28:41.286Z,30.02
2018-09-13T12:31:08.776Z,30.35
2018-09-13T12:33:36.319Z,31.04
2018-09-13T12:36:03.882Z,31.29
2018-09-13T12:38:31.295Z,31.02
2018-09-13T12:40:58.844Z,31.61
2018-09-13T12:43:27.210Z,31.36
2018-09-13T12:45:54.760Z,31.90
2018-09-13T12:48:22.253Z,33.12
2018-09-13T12:50:49.785Z,36.84
2018-09-13T12:53:17.371Z,40.77
2018-09-13T12:55:44.438Z,42.62
2018-09-13T12:58:11.889Z,44.98
2018-09-13T13:00:39.299Z,44.97
2018-09-13T13:03:06.804Z,46.55
2018-09-13T13:05:34.451Z,49.27
2018-09-13T13:08:01.963Z,48.43
2018-09-13T13:10:30.244Z,49.96
2018-09-13T13:12:57.858Z,50.63
2018-09-13T13:15:25.329Z,51.08
2018-09-13T13:17:52.857Z,51.35
2018-09-13T13:20:20.423Z,51.46
2018-09-13T13:22:47.905Z,50.25
2018-09-13T13:25:15.435Z,49.90
2018-09-13T13:27:43.017Z,50.60
2018-09-13T13:30:10.409Z,49.51
2018-09-13T13:32:37.852Z,50.16
2018-09-13T13:35:05.290Z,50.73
2018-09-13T13:37:32.725Z,49.14
2018-09-13T13:40:00.456Z,46.94
2018-09-13T13:42:28.092Z,45.58
2018-09-13T13:44:55.688Z,46.55
2018-09-13T13:47:23.271Z,44.95
2018-09-13T13:49:50.804Z,42.29
2018-09-13T13:52:18.276Z,41.87
2018-09-13T13:54:45.722Z,40.85
2018-09-13T13:57:13.154Z,42.25
2018-09-13T13:59:40.678Z,42.36
2018-09-13T14:02:08.191Z,41.40
2018-09-13T14:04:35.898Z,41.62
2018-09-13T14:07:03.344Z,41.42
2018-09-13T14:09:31.076Z,42.28
2018-09-13T14:11:58.559Z,41.73
2018-09-13T14:14:25.712Z,41.74
2018-09-13T14:16:53.185Z,40.53
2018-09-13T14:19:20.844Z,38.55
2018-09-13T14:21:49.249Z,37.97
2018-09-13T14:24:16.703Z,38.42
2018-09-13T14:26:44.251Z,39.11
2018-09-13T14:29:11.871Z,37.94
2018-09-13T14:31:39.354Z,36.50
2018-09-13T14:34:06.848Z,36.84
2018-09-13T14:36:34.461Z,37.35
2018-09-13T14:39:02.037Z,36.96
2018-09-13T14:41:29.476Z,37.07
2018-09-13T14:43:56.954Z,37.83
2018-09-13T14:46:24.429Z,36.74
2018-09-13T14:48:51.888Z,35.94
2018-09-13T14:51:19.327Z,35.38
2018-09-13T14:53:46.856Z,36.24
2018-09-13T14:56:14.389Z,36.27
2018-09-13T14:58:41.782Z,36.59
2018-09-13T15:01:09.251Z,35.94
2018-09-13T15:03:36.926Z,35.28
2018-09-13T15:06:04.394Z,35.52
2018-09-13T15:08:31.882Z,36.00
2018-09-13T15:10:59.850Z,36.47
2018-09-13T15:13:27.279Z,37.07
2018-09-13T15:15:54.735Z,37.17
2018-09-13T15:18:22.247Z,37.13
2018-09-13T15:20:49.697Z,37.67
2018-09-13T15:23:17.335Z,37.79
2018-09-13T15:25:44.859Z,37.91
2018-09-13T15:28:12.663Z,38.01
2018-09-13T15:30:40.056Z,38.19
2018-09-13T15:33:07.714Z,38.67
2018-09-13T15:35:35.258Z,39.30
2018-09-13T15:38:02.826Z,40.29
2018-09-13T15:40:30.493Z,39.51
2018-09-13T15:42:57.960Z,39.78
2018-09-13T15:45:25.366Z,39.83
2018-09-13T15:47:52.919Z,39.94
2018-09-13T15:50:20.440Z,41.63
2018-09-13T15:52:47.951Z,41.51
2018-09-13T15:55:15.519Z,41.63
2018-09-13T15:57:43.076Z,40.87
2018-09-13T16:00:10.569Z,41.13
2018-09-13T16:02:38.015Z,41.10
2018-09-13T16:05:05.475Z,40.69
2018-09-13T16:07:33.083Z,39.84
2018-09-13T16:10:00.720Z,38.65
2018-09-13T16:12:28.233Z,38.44
2018-09-13T16:14:55.647Z,37.99
2018-09-13T16:17:23.319Z,38.47
2018-09-13T16:19:51.464Z,38.56
2018-09-13T16:22:19.440Z,38.37
2018-09-13T16:24:46.897Z,38.58
2018-09-13T16:27:14.398Z,38.77
2018-09-13T16:29:41.861Z,38.88
2018-09-13T16:32:09.353Z,38.70
2018-09-13T16:34:36.815Z,39.02
2018-09-13T16:37:05.164Z,38.84
2018-09-13T16:42:42.750Z,38.77
2018-09-13T16:45:10.162Z,39.09
2018-09-13T16:50:31.084Z,40.04
2018-09-13T16:52:59.315Z,40.96
2018-09-13T16:55:26.840Z,41.73
2018-09-13T16:57:54.305Z,41.74
2018-09-13T17:00:21.813Z,41.35
2018-09-13T17:02:50.102Z,41.50
2018-09-13T17:05:17.567Z,41.71
2018-09-13T17:07:45.216Z,42.16
2018-09-13T17:10:13.443Z,42.71
2018-09-13T17:12:41.138Z,42.77
2018-09-13T17:15:08.662Z,43.31
2018-09-13T17:17:36.412Z,43.66
2018-09-13T17:20:03.974Z,43.47
2018-09-13T17:22:31.772Z,44.27
2018-09-13T17:24:59.293Z,45.16
2018-09-13T17:27:26.768Z,46.04
2018-09-13T17:29:54.234Z,47.04
2018-09-13T17:32:21.834Z,47.83
2018-09-13T17:34:49.383Z,48.37
2018-09-13T17:37:16.937Z,48.98
2018-09-13T17:39:44.333Z,50.04
2018-09-13T17:42:11.770Z,50.63
2018-09-13T17:44:39.295Z,51.44
2018-09-13T17:47:06.907Z,51.43
2018-09-13T17:49:34.450Z,50.59
2018-09-13T17:52:02.009Z,49.24
2018-09-13T17:54:30.030Z,48.41
2018-09-13T17:56:57.490Z,48.39
2018-09-13T17:59:24.957Z,49.08
2018-09-13T18:01:52.463Z,48.66
2018-09-13T18:04:19.924Z,48.57
2018-09-13T18:06:47.465Z,48.68
2018-09-13T18:09:14.924Z,49.02
2018-09-13T18:11:42.410Z,49.25
2018-09-13T18:14:09.901Z,49.21
2018-09-13T18:16:37.380Z,49.41
2018-09-13T18:19:04.875Z,50.28
2018-09-13T18:21:32.402Z,50.82
2018-09-13T18:24:00.341Z,51.62
2018-09-13T18:26:28.065Z,52.33
2018-09-13T18:28:55.079Z,53.06
2018-09-13T18:31:22.543Z,53.46
2018-09-13T18:33:50.015Z,54.31
2018-09-13T18:36:18.602Z,55.25
2018-09-13T18:38:46.182Z,55.87
2018-09-13T18:41:13.583Z,56.54
2018-09-13T18:43:41.036Z,56.87
2018-09-13T18:46:08.485Z,56.94
2018-09-13T18:48:35.988Z,57.34
2018-09-13T18:51:03.435Z,58.42
2018-09-13T18:53:31.165Z,59.09
2018-09-13T18:55:58.640Z,60.00
2018-09-13T18:58:26.161Z,61.16
2018-09-13T19:00:53.665Z,61.73
2018-09-13T19:03:21.150Z,62.94
2018-09-13T19:05:48.675Z,63.95
2018-09-13T19:08:16.185Z,64.57
2018-09-13T19:10:43.694Z,65.40
2018-09-13T19:13:11.186Z,66.15
2018-09-13T19:15:39.532Z,65.75
2018-09-13T19:18:07.032Z,65.14
2018-09-13T19:20:34.560Z,64.59
2018-09-13T19:23:02.065Z,64.46
2018-09-13T19:25:29.569Z,64.18
2018-09-13T19:27:57.064Z,63.86
2018-09-13T19:30:24.475Z,63.61
2018-09-13T19:32:52.041Z,63.52
2018-09-13T19:35:19.485Z,63.14
2018-09-13T19:37:47.176Z,62.96
2018-09-13T19:40:14.659Z,62.53
2018-09-13T19:42:42.169Z,62.21
2018-09-13T19:45:09.620Z,61.90
2018-09-13T19:47:37.097Z,61.76
2018-09-13T19:50:04.648Z,61.49
2018-09-13T19:52:32.110Z,60.95
2018-09-13T19:54:59.552Z,60.50
2018-09-13T19:57:27.563Z,60.48
2018-09-13T19:59:56.135Z,60.38
2018-09-13T20:02:23.624Z,60.31
2018-09-13T20:04:51.209Z,60.09
2018-09-13T20:07:18.703Z,60.24
2018-09-13T20:09:46.213Z,60.27
2018-09-13T20:12:13.764Z,60.17
2018-09-13T20:14:41.292Z,59.81
2018-09-13T20:17:08.858Z,59.93
2018-09-13T20:19:36.604Z,59.92
2018-09-13T20:22:04.080Z,59.39
2018-09-13T20:24:31.827Z,59.35
2018-09-13T20:26:59.228Z,59.15
2018-09-13T20:29:26.884Z,58.85
2018-09-13T20:31:54.528Z,58.62
2018-09-13T20:34:21.946Z,58.42
2018-09-13T20:36:49.553Z,58.25
2018-09-13T20:39:17.206Z,58.74
2018-09-13T20:41:44.654Z,58.69
2018-09-13T20:44:12.184Z,58.83
2018-09-13T20:46:39.804Z,59.61
2018-09-13T20:49:07.198Z,59.85
2018-09-13T20:51:34.745Z,60.02
2018-09-13T20:54:02.235Z,60.59
2018-09-13T20:56:29.680Z,60.86
2018-09-13T20:58:57.173Z,61.14
2018-09-13T21:01:24.851Z,61.43
2018-09-13T21:03:52.414Z,61.57
2018-09-13T21:06:19.843Z,61.66
2018-09-13T21:08:47.596Z,61.89
2018-09-13T21:11:15.194Z,61.91
2018-09-13T21:13:42.663Z,62.00
2018-09-13T21:16:10.148Z,62.16
2018-09-13T21:18:37.655Z,62.79
2018-09-13T21:21:05.100Z,63.40
2018-09-13T21:23:32.592Z,64.11
2018-09-13T21:26:00.044Z,64.52
2018-09-13T21:28:27.592Z,64.92
2018-09-13T21:30:55.105Z,64.85
2018-09-13T21:33:22.577Z,65.24
2018-09-13T21:35:50.159Z,65.72
2018-09-13T21:38:17.630Z,65.80
2018-09-13T21:40:45.076Z,65.96
2018-09-13T21:43:12.528Z,65.87
2018-09-13T21:45:40.021Z,65.78
2018-09-13T21:48:07.535Z,65.30
2018-09-13T21:50:34.942Z,65.29
2018-09-13T21:53:02.552Z,65.26
2018-09-13T21:55:30.151Z,65.14
2018-09-13T21:57:57.658Z,65.01
2018-09-13T22:00:25.129Z,64.89
2018-09-13T22:02:52.539Z,64.86
2018-09-13T22:05:20.086Z,64.93
2018-09-13T22:07:47.720Z,65.04
2018-09-13T22:10:15.243Z,64.81
2018-09-13T22:12:42.744Z,64.96
2018-09-13T22:15:10.344Z,65.09
2018-09-13T22:17:37.795Z,65.05
2018-09-13T22:20:05.267Z,65.50
2018-09-13T22:22:32.704Z,65.52
2018-09-13T22:25:00.106Z,65.94
2018-09-13T22:27:27.564Z,67.04
2018-09-13T22:29:55.004Z,68.12
2018-09-13T22:32:22.480Z,68.95
2018-09-13T22:34:49.959Z,69.99
2018-09-13T22:37:17.446Z,70.41
2018-09-13T22:39:44.969Z,69.78
2018-09-13T22:42:12.400Z,69.82
2018-09-13T22:44:39.872Z,69.98
2018-09-13T22:47:07.320Z,70.01
2018-09-13T22:49:34.789Z,70.15
2018-09-13T22:52:02.238Z,70.33
2018-09-13T22:54:29.663Z,70.41
2018-09-13T22:56:57.200Z,69.92
2018-09-13T22:59:24.691Z,69.93
2018-09-13T23:01:52.163Z,69.99
2018-09-13T23:04:19.640Z,70.43
2018-09-13T23:06:47.132Z,70.45
2018-09-13T23:09:14.599Z,70.25
2018-09-13T23:11:42.077Z,70.77
2018-09-13T23:14:09.572Z,71.32
2018-09-13T23:16:37.049Z,71.91
2018-09-13T23:19:04.563Z,71.59
2018-09-13T23:21:32.060Z,71.22
2018-09-13T23:23:59.532Z,71.51
2018-09-13T23:26:27.075Z,72.13
2018-09-13T23:28:54.526Z,72.09
